createdAt,value
2022-08-08T00:04:16.234Z,15.27
2022-08-08T00:14:56.923Z,15.12
2022-08-08T00:25:03.805Z,15.02
2022-08-08T00:35:21.119Z,14.89
2022-08-08T00:45:38.935Z,14.82
2022-08-08T00:56:33.909Z,14.77
2022-08-08T01:07:13.903Z,14.68
2022-08-08T01:17:58.125Z,14.55
2022-08-08T01:28:18.118Z,14.42
2022-08-08T01:38:39.976Z,14.29
2022-08-08T01:48:58.746Z,14.14
2022-08-08T01:59:38.271Z,14.03
2022-08-08T02:10:36.950Z,13.89
2022-08-08T02:21:13.271Z,13.84
2022-08-08T02:31:58.202Z,13.70
2022-08-08T02:42:18.164Z,13.54
2022-08-08T02:52:40.592Z,13.38
2022-08-08T03:03:05.682Z,13.26
2022-08-08T03:15:54.368Z,13.11
2022-08-08T03:23:59.083Z,12.97
2022-08-08T03:34:02.487Z,12.85
2022-08-08T03:44:07.003Z,12.69
2022-08-08T03:54:15.718Z,12.58
2022-08-08T04:04:41.759Z,12.40
2022-08-08T04:14:45.321Z,12.26
2022-08-08T04:24:50.079Z,12.11
2022-08-08T04:34:58.477Z,12.00
2022-08-08T04:45:01.650Z,12.00
2022-08-08T04:55:06.583Z,12.03
2022-08-08T05:05:19.920Z,12.12
2022-08-08T05:15:23.616Z,12.37
2022-08-08T05:25:41.231Z,12.65
2022-08-08T05:35:45.788Z,12.95
2022-08-08T05:45:53.013Z,13.39
2022-08-08T05:56:11.459Z,13.84
2022-08-08T06:06:23.405Z,14.35
2022-08-08T06:16:42.522Z,14.83
2022-08-08T06:26:58.239Z,15.33
2022-08-08T06:37:25.195Z,15.88
2022-08-08T06:47:31.581Z,16.42
2022-08-08T06:57:53.635Z,17.00
2022-08-08T07:08:10.816Z,17.50
2022-08-08T07:18:36.663Z,17.96
2022-08-08T07:28:44.852Z,18.38
2022-08-08T07:38:53.309Z,18.87
2022-08-08T07:48:58.437Z,19.35
2022-08-08T07:59:05.934Z,19.97
2022-08-08T08:09:27.466Z,20.47
2022-08-08T08:19:45.502Z,21.01
2022-08-08T08:29:51.874Z,21.46
2022-08-08T08:40:02.907Z,21.74
2022-08-08T08:50:10.688Z,22.10
2022-08-08T09:00:49.900Z,22.49
2022-08-08T09:11:17.643Z,22.95
2022-08-08T09:21:56.298Z,23.54
2022-08-08T09:32:06.428Z,23.72
2022-08-08T09:42:25.771Z,24.28
2022-08-08T09:52:55.950Z,24.62
2022-08-08T10:02:57.900Z,24.86
2022-08-08T10:13:13.851Z,25.10
2022-08-08T10:23:29.286Z,25.23
2022-08-08T10:34:19.906Z,25.63
2022-08-08T10:44:27.724Z,26.25
2022-08-08T10:54:38.854Z,26.49
2022-08-08T11:04:54.201Z,26.89
2022-08-08T11:15:08.799Z,27.13
2022-08-08T11:25:21.166Z,27.34
2022-08-08T11:35:45.435Z,27.93
2022-08-08T11:46:13.231Z,28.42
2022-08-08T11:56:24.617Z,28.74
2022-08-08T12:06:29.189Z,28.95
2022-08-08T12:16:39.607Z,29.46
2022-08-08T12:26:57.070Z,29.63
2022-08-08T12:37:08.474Z,30.18
2022-08-08T12:47:13.127Z,30.33
2022-08-08T12:57:18.431Z,30.84
2022-08-08T13:08:03.830Z,31.46
2022-08-08T13:18:07.873Z,31.53
2022-08-08T13:28:10.060Z,32.18
2022-08-08T13:38:13.643Z,32.65
2022-08-08T13:48:25.826Z,33.14
2022-08-08T13:58:30.676Z,32.54
2022-08-08T14:08:35.001Z,32.54
2022-08-08T14:18:53.775Z,32.73
2022-08-08T14:29:05.782Z,33.54
2022-08-08T14:39:20.201Z,33.69
2022-08-08T14:50:06.559Z,33.78
2022-08-08T15:00:00.741Z,32.43
2022-08-08T15:10:04.068Z,32.28
2022-08-08T15:20:12.599Z,31.04
2022-08-08T15:30:19.819Z,30.28
2022-08-08T15:40:22.558Z,29.66
2022-08-08T15:50:53.059Z,29.31
2022-08-08T16:00:56.371Z,29.04
2022-08-08T16:13:12.268Z,28.66
2022-08-08T16:21:26.936Z,28.58
2022-08-08T16:31:30.433Z,28.48
2022-08-08T16:41:35.157Z,28.69
2022-08-08T16:55:02.069Z,28.26
2022-08-08T17:02:05.305Z,28.29
2022-08-08T17:12:21.623Z,28.03
2022-08-08T17:22:39.131Z,27.72
2022-08-08T17:33:43.971Z,27.46
2022-08-08T17:43:08.329Z,27.14
2022-08-08T17:53:15.397Z,26.80
2022-08-08T18:03:18.708Z,26.46
2022-08-08T18:13:25.443Z,25.90
2022-08-08T18:23:29.698Z,25.29
2022-08-08T18:34:12.451Z,24.63
2022-08-08T18:43:56.469Z,24.05
2022-08-08T18:54:02.873Z,23.59
2022-08-08T19:04:12.630Z,23.40
2022-08-08T19:14:20.403Z,23.41
2022-08-08T19:24:41.923Z,23.07
2022-08-08T19:34:51.367Z,22.75
2022-08-08T19:44:55.086Z,22.37
2022-08-08T19:55:13.170Z,21.95
2022-08-08T20:06:14.895Z,21.49
2022-08-08T20:15:59.981Z,21.09
2022-08-08T20:26:04.381Z,20.61
2022-08-08T20:36:08.826Z,20.21
2022-08-08T20:46:13.660Z,19.81
2022-08-08T20:56:17.126Z,19.43
2022-08-08T21:06:19.868Z,19.10
2022-08-08T21:16:44.208Z,18.84
2022-08-08T21:26:47.092Z,18.55
2022-08-08T21:36:54.939Z,18.28
2022-08-08T21:48:04.030Z,18.03
2022-08-08T21:57:28.804Z,17.83
2022-08-08T22:07:48.206Z,17.64
2022-08-08T22:17:52.386Z,17.47
2022-08-08T22:28:04.718Z,17.30
2022-08-08T22:38:22.438Z,17.13
2022-08-08T22:48:25.042Z,16.93
2022-08-08T22:58:28.613Z,16.77
2022-08-08T23:08:35.866Z,16.65
2022-08-08T23:18:47.312Z,16.49
2022-08-08T23:28:52.096Z,16.36
2022-08-08T23:38:54.432Z,16.22
2022-08-08T23:49:00.668Z,16.14
2022-08-08T23:59:17.186Z,16.03
